Time;durP1;ratioP1;P1;durP2;ratioP2;P2;SDS_P1;SDS_P2;PMS_P1;PMS_P2;Temp;Humidity;BMP_temperature;BMP_pressure;BME280_temperature;BME280_humidity;BME280_pressure;Samples;Min_cycle;Max_cycle;Signal;HPM_P1;HPM_P2
2023/07/02 00:06:22;;;;;;;3.63;0.88;;;;;;;;;;21005081;28;20036;-61
2023/07/02 00:16:23;;;;;;;1.77;0.60;;;;;;;;;;21004375;28;20478;-61
2023/07/02 00:26:25;;;;;;;1.52;0.65;;;;;;;;;;21001350;28;20049;-62
2023/07/02 00:36:26;;;;;;;0.82;0.50;;;;;;;;;;21003118;28;20048;-62
2023/07/02 00:46:27;;;;;;;1.75;0.63;;;;;;;;;;21001721;28;20044;-62
2023/07/02 00:56:28;;;;;;;2.17;0.60;;;;;;;;;;21000948;28;20048;-62
2023/07/02 01:06:30;;;;;;;1.73;0.75;;;;;;;;;;20999056;28;20041;-62
2023/07/02 01:16:32;;;;;;;1.23;0.70;;;;;;;;;;20999459;28;20051;-61
2023/07/02 01:26:34;;;;;;;1.67;1.00;;;;;;;;;;20998532;28;20079;-61
2023/07/02 01:36:35;;;;;;;1.80;1.10;;;;;;;;;;20995735;28;20060;-61
2023/07/02 01:46:37;;;;;;;1.55;0.82;;;;;;;;;;20996375;28;20041;-61
2023/07/02 01:56:38;;;;;;;1.38;0.70;;;;;;;;;;20997301;28;20051;-62
2023/07/02 02:06:39;;;;;;;3.80;1.00;;;;;;;;;;20995406;28;20052;-61
2023/07/02 02:16:40;;;;;;;4.05;1.10;;;;;;;;;;20996448;28;20091;-61
2023/07/02 02:26:41;;;;;;;3.17;1.10;;;;;;;;;;20995977;28;20041;-62
2023/07/02 02:36:43;;;;;;;1.55;0.98;;;;;;;;;;20996136;28;20059;-60
2023/07/02 02:46:44;;;;;;;1.92;1.35;;;;;;;;;;21005657;28;20051;-62
2023/07/02 02:56:45;;;;;;;2.92;1.45;;;;;;;;;;21010542;28;20056;-61
2023/07/02 03:06:46;;;;;;;2.75;1.55;;;;;;;;;;21009820;28;20393;-61
2023/07/02 03:16:48;;;;;;;4.40;1.75;;;;;;;;;;21009349;28;20129;-61
2023/07/02 03:26:49;;;;;;;2.63;1.70;;;;;;;;;;21007991;28;20128;-61
2023/07/02 03:36:50;;;;;;;3.22;2.03;;;;;;;;;;21006651;28;20132;-61
2023/07/02 03:46:51;;;;;;;5.55;1.88;;;;;;;;;;21006958;28;20127;-62
2023/07/02 03:56:52;;;;;;;2.38;1.42;;;;;;;;;;21003638;28;20052;-61
2023/07/02 04:06:53;;;;;;;2.70;1.88;;;;;;;;;;21005445;28;20036;-62
2023/07/02 04:16:54;;;;;;;2.88;1.85;;;;;;;;;;21003775;28;20048;-62
2023/07/02 04:26:55;;;;;;;2.45;1.92;;;;;;;;;;21003464;28;20051;-62
2023/07/02 04:36:56;;;;;;;2.83;1.88;;;;;;;;;;21002218;28;20116;-61
2023/07/02 04:47:01;;;;;;;1.92;1.52;;;;;;;;;;21002163;28;20049;-62
2023/07/02 04:57:03;;;;;;;2.35;1.70;;;;;;;;;;21001151;28;20040;-61
2023/07/02 05:07:04;;;;;;;2.33;1.70;;;;;;;;;;21000098;28;20045;-62
2023/07/02 05:17:05;;;;;;;2.50;1.50;;;;;;;;;;20998491;28;20080;-62
2023/07/02 05:27:07;;;;;;;2.30;1.58;;;;;;;;;;20999109;28;20055;-61
2023/07/02 05:37:08;;;;;;;2.50;1.45;;;;;;;;;;20996938;28;20053;-61
2023/07/02 05:47:09;;;;;;;2.10;1.50;;;;;;;;;;20997891;28;20044;-61
2023/07/02 05:57:10;;;;;;;2.88;1.60;;;;;;;;;;20996250;28;20060;-61
2023/07/02 06:07:11;;;;;;;3.00;1.50;;;;;;;;;;20995617;28;20036;-60
2023/07/02 06:17:12;;;;;;;2.55;1.42;;;;;;;;;;21000072;28;20048;-62
2023/07/02 06:27:13;;;;;;;3.60;1.60;;;;;;;;;;21013067;28;20450;-61
2023/07/02 06:37:14;;;;;;;3.42;1.50;;;;;;;;;;21011202;28;20056;-62
2023/07/02 06:47:15;;;;;;;2.58;1.25;;;;;;;;;;21011650;28;20055;-61
2023/07/02 06:57:17;;;;;;;3.42;1.67;;;;;;;;;;21010862;28;20055;-61
2023/07/02 07:07:18;;;;;;;1.50;1.17;;;;;;;;;;21008812;28;20036;-61
2023/07/02 07:17:19;;;;;;;3.50;1.40;;;;;;;;;;21008971;28;20045;-61
2023/07/02 07:27:20;;;;;;;3.88;1.70;;;;;;;;;;21008360;28;20055;-61
2023/07/02 07:37:21;;;;;;;3.50;1.77;;;;;;;;;;21006466;28;20391;-61
2023/07/02 07:47:23;;;;;;;4.35;1.45;;;;;;;;;;21007047;28;20401;-65
2023/07/02 07:57:25;;;;;;;4.30;1.60;;;;;;;;;;21005922;28;20053;-63
2023/07/02 08:07:26;;;;;;;1.20;1.10;;;;;;;;;;21005673;28;20116;-66
2023/07/02 08:17:27;;;;;;;3.95;1.60;;;;;;;;;;21004867;28;20093;-60
2023/07/02 08:27:28;;;;;;;1.52;1.38;;;;;;;;;;21003140;28;20044;-59
2023/07/02 08:37:29;;;;;;;3.40;1.40;;;;;;;;;;21001988;28;20460;-71
2023/07/02 08:47:30;;;;;;;2.47;1.40;;;;;;;;;;21001341;28;20105;-70
2023/07/02 08:57:33;;;;;;;2.65;1.45;;;;;;;;;;20999999;28;20060;-68
2023/07/02 09:07:44;;;;;;;4.43;1.40;;;;;;;;;;21000226;28;20052;-69
2023/07/02 09:17:45;;;;;;;4.38;1.80;;;;;;;;;;21000176;28;20481;-70
2023/07/02 09:27:47;;;;;;;2.40;1.65;;;;;;;;;;20999260;28;20474;-70
2023/07/02 09:37:49;;;;;;;3.25;2.35;;;;;;;;;;20997121;28;20063;-70
2023/07/02 09:47:51;;;;;;;5.00;2.33;;;;;;;;;;20997933;28;20140;-71
2023/07/02 09:57:52;;;;;;;4.72;2.90;;;;;;;;;;20995952;28;20494;-70
2023/07/02 10:07:53;;;;;;;3.90;2.65;;;;;;;;;;20996983;28;20041;-69
2023/07/02 10:17:55;;;;;;;5.63;2.95;;;;;;;;;;20996637;28;20074;-70
2023/07/02 10:27:57;;;;;;;3.85;2.80;;;;;;;;;;20995909;28;20048;-70
2023/07/02 10:37:58;;;;;;;5.47;2.80;;;;;;;;;;20993608;28;20056;-70
2023/07/02 10:47:59;;;;;;;6.18;3.35;;;;;;;;;;20994752;28;20102;-70
2023/07/02 10:58:07;;;;;;;4.80;2.92;;;;;;;;;;20994751;28;20394;-70
2023/07/02 11:08:09;;;;;;;3.83;3.05;;;;;;;;;;21005076;28;20076;-70
2023/07/02 11:18:14;;;;;;;6.18;2.95;;;;;;;;;;21008398;28;20041;-71
2023/07/02 11:28:15;;;;;;;3.23;2.57;;;;;;;;;;21007419;28;20052;-70
2023/07/02 11:38:16;;;;;;;3.95;2.00;;;;;;;;;;21008341;28;20057;-71
2023/07/02 11:48:18;;;;;;;3.80;2.25;;;;;;;;;;21007078;28;20478;-71
2023/07/02 11:58:19;;;;;;;3.72;2.35;;;;;;;;;;21005923;28;20052;-71
2023/07/02 12:08:20;;;;;;;1.65;1.40;;;;;;;;;;21005340;28;20432;-70
2023/07/02 12:18:21;;;;;;;3.58;1.80;;;;;;;;;;21003632;28;20041;-72
2023/07/02 12:28:22;;;;;;;3.58;1.70;;;;;;;;;;21004646;28;20409;-71
2023/07/02 12:38:23;;;;;;;3.00;1.38;;;;;;;;;;21003646;28;20101;-71
2023/07/02 12:48:24;;;;;;;2.85;1.98;;;;;;;;;;21002279;28;20054;-72
2023/07/02 12:58:25;;;;;;;3.45;1.83;;;;;;;;;;21001445;28;20113;-72
2023/07/02 13:08:26;;;;;;;5.18;3.03;;;;;;;;;;21000554;28;20051;-72
2023/07/02 13:18:27;;;;;;;2.97;1.48;;;;;;;;;;20999770;28;20040;-72
2023/07/02 13:28:29;;;;;;;1.52;1.10;;;;;;;;;;20997793;28;20044;-71
2023/07/02 13:38:30;;;;;;;2.03;1.27;;;;;;;;;;20997406;28;20537;-71
2023/07/02 13:48:31;;;;;;;6.28;4.70;;;;;;;;;;20996750;28;20037;-71
2023/07/02 13:59:08;;;;;;;2.88;1.30;;;;;;;;;;20997688;28;20391;-71
2023/07/02 14:09:09;;;;;;;3.45;2.20;;;;;;;;;;20992959;28;20139;-71
2023/07/02 14:19:12;;;;;;;3.17;1.67;;;;;;;;;;20995515;28;20123;-72
2023/07/02 14:29:13;;;;;;;2.45;1.17;;;;;;;;;;20996279;28;20076;-71
2023/07/02 14:39:14;;;;;;;1.83;1.50;;;;;;;;;;21000393;28;20056;-71
2023/07/02 14:49:15;;;;;;;2.20;1.10;;;;;;;;;;21011813;28;20067;-71
2023/07/02 14:59:16;;;;;;;4.22;1.88;;;;;;;;;;21011017;28;20490;-71
2023/07/02 15:09:18;;;;;;;1.77;1.23;;;;;;;;;;21009563;28;20047;-71
2023/07/02 15:19:19;;;;;;;3.08;1.30;;;;;;;;;;21009138;28;20049;-71
2023/07/02 15:29:21;;;;;;;1.58;1.00;;;;;;;;;;21008331;28;20055;-71
2023/07/02 15:39:24;;;;;;;4.20;1.20;;;;;;;;;;21008336;28;20123;-71
2023/07/02 15:49:26;;;;;;;2.75;1.13;;;;;;;;;;21003012;28;20044;-71
2023/07/02 15:59:27;;;;;;;3.00;1.48;;;;;;;;;;21004920;28;20521;-71
2023/07/02 16:09:28;;;;;;;2.20;1.10;;;;;;;;;;21002858;28;20097;-70
2023/07/02 16:19:29;;;;;;;1.92;1.23;;;;;;;;;;21004007;28;20051;-71
2023/07/02 16:29:30;;;;;;;2.55;1.73;;;;;;;;;;21003866;28;20050;-70
2023/07/02 16:39:31;;;;;;;3.60;1.73;;;;;;;;;;21001472;28;20057;-70
2023/07/02 16:49:32;;;;;;;3.28;1.42;;;;;;;;;;21001492;28;20049;-71
2023/07/02 16:59:38;;;;;;;1.65;1.00;;;;;;;;;;21000151;28;20052;-71
2023/07/02 17:09:40;;;;;;;2.97;1.30;;;;;;;;;;20999076;28;20052;-70
2023/07/02 17:19:42;;;;;;;3.17;1.85;;;;;;;;;;20997665;28;20052;-71
2023/07/02 17:29:49;;;;;;;2.50;1.77;;;;;;;;;;20998262;28;20044;-72
2023/07/02 17:39:50;;;;;;;3.70;1.63;;;;;;;;;;20996702;28;20126;-70
2023/07/02 17:49:51;;;;;;;4.82;3.50;;;;;;;;;;20997014;28;20178;-71
2023/07/02 17:59:55;;;;;;;2.78;1.83;;;;;;;;;;20997385;28;20052;-71
2023/07/02 18:09:57;;;;;;;10.40;7.20;;;;;;;;;;20996594;28;20051;-71
2023/07/02 18:19:58;;;;;;;17.30;11.15;;;;;;;;;;20994930;28;20056;-71
2023/07/02 18:29:59;;;;;;;4.53;2.75;;;;;;;;;;20995761;28;20041;-71
2023/07/02 18:40:00;;;;;;;3.05;2.10;;;;;;;;;;20996733;28;20509;-70
2023/07/02 18:50:02;;;;;;;7.13;2.80;;;;;;;;;;20994826;28;20473;-70
2023/07/02 19:00:05;;;;;;;3.75;2.30;;;;;;;;;;20994294;28;20049;-70
2023/07/02 19:10:06;;;;;;;3.45;2.20;;;;;;;;;;20994015;28;20486;-70
2023/07/02 19:20:08;;;;;;;2.88;1.73;;;;;;;;;;20993657;28;20417;-72
2023/07/02 19:30:09;;;;;;;4.25;2.10;;;;;;;;;;21004445;28;20137;-72
2023/07/02 19:40:10;;;;;;;4.32;2.50;;;;;;;;;;21005820;28;20496;-71
2023/07/02 19:50:11;;;;;;;3.45;2.50;;;;;;;;;;21006710;28;20094;-70
2023/07/02 20:00:13;;;;;;;4.07;2.13;;;;;;;;;;21005209;28;20048;-71
2023/07/02 20:10:14;;;;;;;5.55;2.45;;;;;;;;;;21005639;28;20433;-71
2023/07/02 20:20:15;;;;;;;4.28;2.40;;;;;;;;;;21004689;28;20486;-71
2023/07/02 20:30:17;;;;;;;4.28;2.33;;;;;;;;;;21003821;28;20051;-70
2023/07/02 20:40:18;;;;;;;4.20;2.50;;;;;;;;;;21004989;28;20464;-71
2023/07/02 20:50:19;;;;;;;4.85;3.28;;;;;;;;;;21010654;28;20047;-69
2023/07/02 21:00:20;;;;;;;6.13;3.20;;;;;;;;;;20999592;28;20058;-71
2023/07/02 21:10:21;;;;;;;8.50;4.07;;;;;;;;;;21000139;28;20040;-70
2023/07/02 21:20:22;;;;;;;6.95;4.97;;;;;;;;;;20999894;28;20048;-73
2023/07/02 21:30:25;;;;;;;7.53;4.93;;;;;;;;;;20997501;28;20130;-71
2023/07/02 21:40:26;;;;;;;11.23;4.97;;;;;;;;;;20999465;28;20056;-70
2023/07/02 21:50:27;;;;;;;7.57;4.22;;;;;;;;;;20998135;28;20048;-71
2023/07/02 22:00:28;;;;;;;4.70;2.88;;;;;;;;;;20996800;28;20060;-72
2023/07/02 22:10:30;;;;;;;2.97;1.40;;;;;;;;;;20997014;28;20044;-71
2023/07/02 22:20:32;;;;;;;2.90;1.10;;;;;;;;;;20998450;28;20048;-73
2023/07/02 22:30:33;;;;;;;1.23;0.85;;;;;;;;;;20995999;28;20083;-72
2023/07/02 22:40:34;;;;;;;2.85;1.00;;;;;;;;;;20997532;28;20052;-71
2023/07/02 22:50:37;;;;;;;1.63;0.82;;;;;;;;;;20994168;28;20127;-70
2023/07/02 23:00:38;;;;;;;3.05;0.90;;;;;;;;;;21000400;28;20052;-71
2023/07/02 23:10:39;;;;;;;1.90;0.95;;;;;;;;;;21010245;28;20049;-70
2023/07/02 23:20:40;;;;;;;1.10;0.63;;;;;;;;;;21009506;28;20048;-70
2023/07/02 23:30:41;;;;;;;2.38;0.80;;;;;;;;;;21008539;28;20086;-70
2023/07/02 23:40:43;;;;;;;2.35;0.80;;;;;;;;;;21008212;28;20052;-70
2023/07/02 23:50:45;;;;;;;1.58;0.57;;;;;;;;;;21007319;28;20055;-70
